createdAt,value
2018-03-26T18:49:54.029Z,10.64
2018-03-26T18:52:25.045Z,10.71
2018-03-26T18:54:56.106Z,10.66
2018-03-26T18:57:27.071Z,10.66
2018-03-26T18:59:58.035Z,10.64
2018-03-26T19:02:28.979Z,10.60
2018-03-26T19:05:00.079Z,10.62
2018-03-26T19:07:31.016Z,10.65
2018-03-26T19:10:02.041Z,10.64
2018-03-26T19:12:33.094Z,10.57
2018-03-26T19:15:04.066Z,10.53
2018-03-26T19:17:35.103Z,10.50
2018-03-26T19:20:06.178Z,10.53
2018-03-26T19:22:37.185Z,10.49
2018-03-26T19:25:08.184Z,10.49
2018-03-26T19:27:39.182Z,10.50
2018-03-26T19:30:10.235Z,10.52
2018-03-26T19:32:41.225Z,10.46
2018-03-26T19:35:12.298Z,10.40
2018-03-26T19:37:43.358Z,10.36
2018-03-26T19:40:14.421Z,10.32
2018-03-26T19:42:45.409Z,10.31
2018-03-26T19:45:16.404Z,10.30
2018-03-26T19:47:47.423Z,10.35
2018-03-26T19:50:18.470Z,10.42
2018-03-26T19:52:49.455Z,10.45
2018-03-26T19:55:20.447Z,10.48
2018-03-26T19:57:51.356Z,10.48
2018-03-26T20:00:22.288Z,10.46
2018-03-26T20:02:53.260Z,10.46
2018-03-26T20:05:24.219Z,10.47
2018-03-26T20:07:55.217Z,10.47
2018-03-26T20:10:26.215Z,10.47
2018-03-26T20:12:57.203Z,10.52
2018-03-26T20:15:28.195Z,10.58
2018-03-26T20:17:59.159Z,10.58
2018-03-26T20:20:30.111Z,10.51
2018-03-26T20:23:01.133Z,10.45
2018-03-26T20:25:32.123Z,10.44
2018-03-26T20:28:03.160Z,10.45
2018-03-26T20:30:34.171Z,10.49
2018-03-26T20:33:05.219Z,10.51
2018-03-26T20:35:36.237Z,10.51
2018-03-26T20:38:07.264Z,10.52
2018-03-26T20:40:38.316Z,10.51
2018-03-26T20:43:09.339Z,10.48
2018-03-26T20:45:40.336Z,10.44
2018-03-26T20:48:11.320Z,10.42
2018-03-26T20:50:42.361Z,10.43
2018-03-26T20:53:13.353Z,10.39
2018-03-26T20:55:44.437Z,10.39
2018-03-26T20:58:15.443Z,10.39
2018-03-26T21:00:46.445Z,10.36
2018-03-26T21:03:17.513Z,10.29
2018-03-26T21:05:48.545Z,10.21
2018-03-26T21:08:19.598Z,10.16
2018-03-26T21:10:50.658Z,10.12
2018-03-26T21:13:21.722Z,10.09
2018-03-26T21:15:52.757Z,10.09
2018-03-26T21:18:23.825Z,10.05
2018-03-26T21:20:54.881Z,10.01
2018-03-26T21:23:25.942Z,10.04
2018-03-26T21:25:57.025Z,9.99
2018-03-26T21:28:28.066Z,9.98
2018-03-26T21:30:59.153Z,10.03
2018-03-26T21:33:30.191Z,10.01
2018-03-26T21:36:01.264Z,10.04
2018-03-26T21:38:32.330Z,10.00
2018-03-26T21:41:03.398Z,9.96
2018-03-26T21:43:34.726Z,9.90
2018-03-26T21:46:05.833Z,9.82
2018-03-26T21:48:36.891Z,9.72
2018-03-26T21:51:07.953Z,9.68
2018-03-26T21:53:38.989Z,9.66
2018-03-26T21:56:10.036Z,9.64
2018-03-26T21:58:41.096Z,9.66
2018-03-26T22:01:12.164Z,9.66
2018-03-26T22:03:43.204Z,9.64
2018-03-26T22:06:14.245Z,9.61
2018-03-26T22:08:45.273Z,9.59
2018-03-26T22:11:16.349Z,9.55
2018-03-26T22:13:47.397Z,9.59
2018-03-26T22:16:18.462Z,9.58
2018-03-26T22:18:49.488Z,9.58
2018-03-26T22:21:20.545Z,9.57
2018-03-26T22:23:51.573Z,9.54
2018-03-26T22:26:22.625Z,9.53
2018-03-26T22:28:53.700Z,9.53
2018-03-26T22:31:24.737Z,9.54
2018-03-26T22:33:55.814Z,9.50
2018-03-26T22:36:26.869Z,9.48
2018-03-26T22:38:57.934Z,9.47
2018-03-26T22:41:28.973Z,9.44
2018-03-26T22:44:00.037Z,9.43
2018-03-26T22:46:31.082Z,9.42
2018-03-26T22:49:02.142Z,9.39
2018-03-26T22:51:33.170Z,9.37
2018-03-26T22:54:04.240Z,9.38
2018-03-26T22:56:35.289Z,9.37
2018-03-26T22:59:06.358Z,9.36
2018-03-26T23:01:37.383Z,9.33
2018-03-26T23:04:08.469Z,9.32
2018-03-26T23:06:39.493Z,9.27
2018-03-26T23:09:10.545Z,9.21
2018-03-26T23:11:41.598Z,9.20
2018-03-26T23:14:12.642Z,9.15
2018-03-26T23:16:43.677Z,9.08
2018-03-26T23:19:14.703Z,8.97
2018-03-26T23:21:45.770Z,8.82
2018-03-26T23:24:16.797Z,8.68
2018-03-26T23:26:47.849Z,8.56
2018-03-26T23:29:18.886Z,8.46
2018-03-26T23:31:49.961Z,8.38
2018-03-26T23:34:20.981Z,8.36
2018-03-26T23:36:52.034Z,8.34
2018-03-26T23:39:23.062Z,8.36
2018-03-26T23:41:54.113Z,8.36
2018-03-26T23:44:25.161Z,8.33
2018-03-26T23:46:56.214Z,8.34
2018-03-26T23:49:27.249Z,8.32
2018-03-26T23:51:58.311Z,8.35
2018-03-26T23:54:29.391Z,8.38
2018-03-26T23:57:00.395Z,8.38
2018-03-26T23:59:31.462Z,8.38
